sensor_id;sensor_type;location;lat;lon;timestamp;pressure;altitude;pressure_sealevel;temperature;humidity
42859;BME280;28505;56.970;40.998;2024-01-15T00:00:00;98315.75;;;-14.10;100.00
42859;BME280;28505;56.970;40.998;2024-01-15T00:05:30;98327.53;;;-13.93;100.00
42859;BME280;28505;56.970;40.998;2024-01-15T00:10:52;98307.19;;;-13.96;100.00
42859;BME280;28505;56.970;40.998;2024-01-15T00:16:16;98306.47;;;-13.90;100.00
42859;BME280;28505;56.970;40.998;2024-01-15T00:21:39;98316.22;;;-13.77;100.00
42859;BME280;28505;56.970;40.998;2024-01-15T00:27:01;98283.00;;;-13.88;100.00
42859;BME280;28505;56.970;40.998;2024-01-15T00:32:24;98270.50;;;-13.85;100.00
42859;BME280;28505;56.970;40.998;2024-01-15T00:37:46;98282.63;;;-13.71;100.00
42859;BME280;28505;56.970;40.998;2024-01-15T00:43:08;98281.13;;;-13.65;100.00
42859;BME280;28505;56.970;40.998;2024-01-15T00:48:30;98278.97;;;-13.61;100.00
42859;BME280;28505;56.970;40.998;2024-01-15T00:53:53;98257.09;;;-13.74;100.00
42859;BME280;28505;56.970;40.998;2024-01-15T00:59:15;98254.66;;;-13.60;100.00
42859;BME280;28505;56.970;40.998;2024-01-15T01:04:37;98257.16;;;-13.52;100.00
42859;BME280;28505;56.970;40.998;2024-01-15T01:09:58;98235.38;;;-13.58;100.00
42859;BME280;28505;56.970;40.998;2024-01-15T01:15:22;98228.75;;;-13.60;100.00
42859;BME280;28505;56.970;40.998;2024-01-15T01:20:50;98243.28;;;-13.45;100.00
42859;BME280;28505;56.970;40.998;2024-01-15T01:26:16;98244.72;;;-13.42;100.00
42859;BME280;28505;56.970;40.998;2024-01-15T01:31:47;98244.63;;;-13.34;100.00
42859;BME280;28505;56.970;40.998;2024-01-15T01:37:10;98206.84;;;-13.43;100.00
42859;BME280;28505;56.970;40.998;2024-01-15T01:42:35;98184.25;;;-13.49;100.00
42859;BME280;28505;56.970;40.998;2024-01-15T01:48:00;98209.56;;;-13.30;100.00
42859;BME280;28505;56.970;40.998;2024-01-15T01:53:26;98224.81;;;-13.20;100.00
42859;BME280;28505;56.970;40.998;2024-01-15T01:58:49;98223.88;;;-13.12;100.00
42859;BME280;28505;56.970;40.998;2024-01-15T02:04:12;98191.22;;;-13.28;100.00
42859;BME280;28505;56.970;40.998;2024-01-15T02:09:37;98197.41;;;-13.08;100.00
42859;BME280;28505;56.970;40.998;2024-01-15T02:15:00;98203.44;;;-13.01;100.00
42859;BME280;28505;56.970;40.998;2024-01-15T02:20:27;98186.25;;;-13.02;100.00
42859;BME280;28505;56.970;40.998;2024-01-15T02:25:51;98189.75;;;-12.94;100.00
42859;BME280;28505;56.970;40.998;2024-01-15T02:31:13;98183.94;;;-12.97;100.00
42859;BME280;28505;56.970;40.998;2024-01-15T02:36:35;98162.38;;;-12.97;100.00
42859;BME280;28505;56.970;40.998;2024-01-15T02:41:57;98199.66;;;-12.77;100.00
42859;BME280;28505;56.970;40.998;2024-01-15T02:47:20;98195.91;;;-12.74;100.00
42859;BME280;28505;56.970;40.998;2024-01-15T02:52:42;98181.25;;;-12.82;100.00
42859;BME280;28505;56.970;40.998;2024-01-15T02:58:05;98200.94;;;-12.66;100.00
42859;BME280;28505;56.970;40.998;2024-01-15T03:03:27;98182.97;;;-12.67;100.00
42859;BME280;28505;56.970;40.998;2024-01-15T03:08:52;98175.47;;;-12.56;100.00
42859;BME280;28505;56.970;40.998;2024-01-15T03:14:14;98177.41;;;-12.64;100.00
42859;BME280;28505;56.970;40.998;2024-01-15T03:19:36;98165.41;;;-12.65;100.00
42859;BME280;28505;56.970;40.998;2024-01-15T03:24:58;98180.94;;;-12.44;100.00
42859;BME280;28505;56.970;40.998;2024-01-15T03:30:23;98172.34;;;-12.44;100.00
42859;BME280;28505;56.970;40.998;2024-01-15T03:35:45;98161.19;;;-12.45;100.00
42859;BME280;28505;56.970;40.998;2024-01-15T03:41:07;98150.53;;;-12.50;100.00
42859;BME280;28505;56.970;40.998;2024-01-15T03:46:30;98169.84;;;-12.31;100.00
42859;BME280;28505;56.970;40.998;2024-01-15T03:51:53;98172.91;;;-12.21;100.00
42859;BME280;28505;56.970;40.998;2024-01-15T03:57:15;98143.66;;;-12.30;100.00
42859;BME280;28505;56.970;40.998;2024-01-15T04:02:37;98130.50;;;-12.28;100.00
42859;BME280;28505;56.970;40.998;2024-01-15T04:08:00;98158.56;;;-12.10;100.00
42859;BME280;28505;56.970;40.998;2024-01-15T04:13:22;98159.97;;;-12.08;100.00
42859;BME280;28505;56.970;40.998;2024-01-15T04:18:44;98139.00;;;-12.13;100.00
42859;BME280;28505;56.970;40.998;2024-01-15T04:24:06;98137.78;;;-12.10;100.00
42859;BME280;28505;56.970;40.998;2024-01-15T04:29:28;98133.63;;;-12.05;100.00
42859;BME280;28505;56.970;40.998;2024-01-15T04:34:52;98109.78;;;-12.21;100.00
42859;BME280;28505;56.970;40.998;2024-01-15T04:40:14;98140.03;;;-12.00;100.00
42859;BME280;28505;56.970;40.998;2024-01-15T04:45:37;98143.03;;;-11.97;100.00
42859;BME280;28505;56.970;40.998;2024-01-15T04:50:59;98141.84;;;-12.01;100.00
42859;BME280;28505;56.970;40.998;2024-01-15T04:56:21;98144.88;;;-11.91;100.00
42859;BME280;28505;56.970;40.998;2024-01-15T05:01:44;98143.31;;;-11.85;100.00
42859;BME280;28505;56.970;40.998;2024-01-15T05:07:06;98145.50;;;-11.89;100.00
42859;BME280;28505;56.970;40.998;2024-01-15T05:12:31;98156.50;;;-11.87;100.00
42859;BME280;28505;56.970;40.998;2024-01-15T05:17:53;98149.28;;;-11.91;100.00
42859;BME280;28505;56.970;40.998;2024-01-15T05:23:16;98145.91;;;-11.85;100.00
42859;BME280;28505;56.970;40.998;2024-01-15T05:28:38;98144.72;;;-11.76;100.00
42859;BME280;28505;56.970;40.998;2024-01-15T05:34:00;98141.31;;;-11.76;100.00
42859;BME280;28505;56.970;40.998;2024-01-15T05:39:23;98129.88;;;-11.82;100.00
42859;BME280;28505;56.970;40.998;2024-01-15T05:44:45;98143.31;;;-11.72;100.00
42859;BME280;28505;56.970;40.998;2024-01-15T05:50:11;98141.34;;;-11.70;100.00
42859;BME280;28505;56.970;40.998;2024-01-15T05:55:36;98133.72;;;-11.71;100.00
42859;BME280;28505;56.970;40.998;2024-01-15T06:01:00;98130.53;;;-11.73;100.00
42859;BME280;28505;56.970;40.998;2024-01-15T06:06:24;98144.38;;;-11.60;100.00
42859;BME280;28505;56.970;40.998;2024-01-15T06:11:48;98143.38;;;-11.52;100.00
42859;BME280;28505;56.970;40.998;2024-01-15T06:17:10;98136.19;;;-11.50;100.00
42859;BME280;28505;56.970;40.998;2024-01-15T06:22:32;98140.41;;;-11.42;100.00
42859;BME280;28505;56.970;40.998;2024-01-15T06:27:55;98115.56;;;-11.51;100.00
42859;BME280;28505;56.970;40.998;2024-01-15T06:33:18;98139.41;;;-11.35;100.00
42859;BME280;28505;56.970;40.998;2024-01-15T06:38:40;98155.47;;;-11.18;100.00
42859;BME280;28505;56.970;40.998;2024-01-15T06:44:03;98142.47;;;-11.11;100.00
42859;BME280;28505;56.970;40.998;2024-01-15T06:49:24;98146.06;;;-10.99;100.00
42859;BME280;28505;56.970;40.998;2024-01-15T06:54:47;98134.66;;;-10.91;100.00
42859;BME280;28505;56.970;40.998;2024-01-15T07:00:12;98133.66;;;-10.90;100.00
42859;BME280;28505;56.970;40.998;2024-01-15T07:05:35;98140.84;;;-10.86;100.00
42859;BME280;28505;56.970;40.998;2024-01-15T07:10:59;98152.69;;;-10.76;100.00
42859;BME280;28505;56.970;40.998;2024-01-15T07:16:22;98145.88;;;-10.64;100.00
42859;BME280;28505;56.970;40.998;2024-01-15T07:21:58;98142.47;;;-10.71;100.00
42859;BME280;28505;56.970;40.998;2024-01-15T07:27:20;98138.69;;;-10.69;100.00
42859;BME280;28505;56.970;40.998;2024-01-15T07:32:42;98143.47;;;-10.66;100.00
42859;BME280;28505;56.970;40.998;2024-01-15T07:38:05;98138.06;;;-10.57;100.00
42859;BME280;28505;56.970;40.998;2024-01-15T07:43:27;98134.03;;;-10.53;100.00
42859;BME280;28505;56.970;40.998;2024-01-15T07:48:50;98126.44;;;-10.55;100.00
42859;BME280;28505;56.970;40.998;2024-01-15T07:54:20;98122.41;;;-10.51;100.00
42859;BME280;28505;56.970;40.998;2024-01-15T07:59:45;98131.66;;;-10.55;100.00
42859;BME280;28505;56.970;40.998;2024-01-15T08:05:08;98140.84;;;-10.46;100.00
42859;BME280;28505;56.970;40.998;2024-01-15T08:10:31;98138.44;;;-10.41;100.00
42859;BME280;28505;56.970;40.998;2024-01-15T08:15:53;98153.25;;;-10.28;100.00
42859;BME280;28505;56.970;40.998;2024-01-15T08:21:16;98122.84;;;-10.61;100.00
42859;BME280;28505;56.970;40.998;2024-01-15T08:26:38;98147.25;;;-10.42;100.00
42859;BME280;28505;56.970;40.998;2024-01-15T08:32:00;98156.88;;;-10.35;100.00
42859;BME280;28505;56.970;40.998;2024-01-15T08:37:22;98144.03;;;-10.37;100.00
42859;BME280;28505;56.970;40.998;2024-01-15T08:42:45;98140.44;;;-10.36;100.00
42859;BME280;28505;56.970;40.998;2024-01-15T08:48:08;98132.44;;;-10.48;100.00
42859;BME280;28505;56.970;40.998;2024-01-15T08:53:30;98141.63;;;-10.39;100.00
42859;BME280;28505;56.970;40.998;2024-01-15T08:58:53;98136.44;;;-10.39;100.00
42859;BME280;28505;56.970;40.998;2024-01-15T09:04:15;98138.25;;;-10.39;100.00
42859;BME280;28505;56.970;40.998;2024-01-15T09:09:38;98126.59;;;-10.37;100.00
42859;BME280;28505;56.970;40.998;2024-01-15T09:15:00;98133.16;;;-10.21;100.00
42859;BME280;28505;56.970;40.998;2024-01-15T09:20:26;98127.34;;;-10.16;100.00
42859;BME280;28505;56.970;40.998;2024-01-15T09:25:49;98122.91;;;-10.09;100.00
42859;BME280;28505;56.970;40.998;2024-01-15T09:31:11;98145.13;;;-10.00;100.00
42859;BME280;28505;56.970;40.998;2024-01-15T09:36:39;98127.47;;;-9.98;100.00
42859;BME280;28505;56.970;40.998;2024-01-15T09:42:05;98137.50;;;-10.01;100.00
42859;BME280;28505;56.970;40.998;2024-01-15T09:47:27;98139.09;;;-9.94;100.00
42859;BME280;28505;56.970;40.998;2024-01-15T09:52:50;98133.03;;;-9.81;100.00
42859;BME280;28505;56.970;40.998;2024-01-15T09:58:13;98125.94;;;-9.67;100.00
42859;BME280;28505;56.970;40.998;2024-01-15T10:03:35;98113.75;;;-9.73;100.00
42859;BME280;28505;56.970;40.998;2024-01-15T10:08:58;98111.66;;;-9.58;100.00
42859;BME280;28505;56.970;40.998;2024-01-15T10:14:27;98114.56;;;-9.41;100.00
42859;BME280;28505;56.970;40.998;2024-01-15T10:19:49;98100.34;;;-9.45;100.00
42859;BME280;28505;56.970;40.998;2024-01-15T10:25:15;98120.50;;;-9.27;100.00
42859;BME280;28505;56.970;40.998;2024-01-15T10:30:38;98098.19;;;-9.23;100.00
42859;BME280;28505;56.970;40.998;2024-01-15T10:42:46;98112.69;;;-9.27;100.00
42859;BME280;28505;56.970;40.998;2024-01-15T10:48:12;98117.47;;;-9.24;100.00
42859;BME280;28505;56.970;40.998;2024-01-15T10:53:39;98112.22;;;-9.17;100.00
42859;BME280;28505;56.970;40.998;2024-01-15T10:59:04;98119.06;;;-9.23;100.00
42859;BME280;28505;56.970;40.998;2024-01-15T11:04:26;98113.69;;;-9.28;100.00
42859;BME280;28505;56.970;40.998;2024-01-15T11:09:50;98112.34;;;-9.37;100.00
42859;BME280;28505;56.970;40.998;2024-01-15T11:15:19;98120.41;;;-9.46;100.00
42859;BME280;28505;56.970;40.998;2024-01-15T11:26:46;98124.50;;;-9.56;100.00
42859;BME280;28505;56.970;40.998;2024-01-15T11:32:08;98122.06;;;-9.51;100.00
42859;BME280;28505;56.970;40.998;2024-01-15T11:43:13;98129.19;;;-9.33;100.00
42859;BME280;28505;56.970;40.998;2024-01-15T11:48:45;98135.63;;;-9.43;100.00
42859;BME280;28505;56.970;40.998;2024-01-15T11:54:09;98122.44;;;-9.48;100.00
42859;BME280;28505;56.970;40.998;2024-01-15T11:59:32;98128.84;;;-9.44;100.00
42859;BME280;28505;56.970;40.998;2024-01-15T12:04:59;98125.22;;;-9.43;100.00
42859;BME280;28505;56.970;40.998;2024-01-15T12:10:22;98122.03;;;-9.45;100.00
42859;BME280;28505;56.970;40.998;2024-01-15T12:15:47;98127.03;;;-9.43;100.00
42859;BME280;28505;56.970;40.998;2024-01-15T12:21:11;98130.88;;;-9.52;100.00
42859;BME280;28505;56.970;40.998;2024-01-15T12:26:34;98122.91;;;-9.57;100.00
42859;BME280;28505;56.970;40.998;2024-01-15T12:31:57;98144.56;;;-9.57;100.00
42859;BME280;28505;56.970;40.998;2024-01-15T12:37:20;98110.50;;;-9.69;100.00
42859;BME280;28505;56.970;40.998;2024-01-15T12:42:44;98101.13;;;-9.76;100.00
42859;BME280;28505;56.970;40.998;2024-01-15T12:48:09;98124.28;;;-9.61;100.00
42859;BME280;28505;56.970;40.998;2024-01-15T12:53:31;98112.94;;;-9.74;100.00
42859;BME280;28505;56.970;40.998;2024-01-15T12:58:54;98105.16;;;-9.80;100.00
42859;BME280;28505;56.970;40.998;2024-01-15T13:04:23;98107.34;;;-9.77;100.00
42859;BME280;28505;56.970;40.998;2024-01-15T13:09:47;98105.56;;;-9.83;100.00
42859;BME280;28505;56.970;40.998;2024-01-15T13:15:14;98098.13;;;-9.80;100.00
42859;BME280;28505;56.970;40.998;2024-01-15T13:20:36;98105.34;;;-9.82;100.00
42859;BME280;28505;56.970;40.998;2024-01-15T13:25:59;98106.16;;;-9.88;100.00
42859;BME280;28505;56.970;40.998;2024-01-15T13:31:21;98083.81;;;-10.09;100.00
42859;BME280;28505;56.970;40.998;2024-01-15T13:36:54;98123.03;;;-9.84;100.00
42859;BME280;28505;56.970;40.998;2024-01-15T13:42:18;98114.22;;;-9.90;100.00
42859;BME280;28505;56.970;40.998;2024-01-15T13:47:40;98115.38;;;-9.85;100.00
42859;BME280;28505;56.970;40.998;2024-01-15T13:53:05;98113.81;;;-9.86;100.00
42859;BME280;28505;56.970;40.998;2024-01-15T13:58:27;98128.00;;;-9.82;100.00
42859;BME280;28505;56.970;40.998;2024-01-15T14:03:50;98118.38;;;-9.82;100.00
42859;BME280;28505;56.970;40.998;2024-01-15T14:09:12;98121.22;;;-9.83;100.00
42859;BME280;28505;56.970;40.998;2024-01-15T14:14:36;98125.03;;;-9.86;100.00
42859;BME280;28505;56.970;40.998;2024-01-15T14:19:58;98121.22;;;-9.83;100.00
42859;BME280;28505;56.970;40.998;2024-01-15T14:25:21;98124.81;;;-9.84;100.00
42859;BME280;28505;56.970;40.998;2024-01-15T14:30:45;98121.41;;;-9.85;100.00
42859;BME280;28505;56.970;40.998;2024-01-15T14:36:07;98126.63;;;-9.85;100.00
42859;BME280;28505;56.970;40.998;2024-01-15T14:41:30;98110.44;;;-9.94;100.00
42859;BME280;28505;56.970;40.998;2024-01-15T14:46:52;98113.78;;;-9.80;100.00
42859;BME280;28505;56.970;40.998;2024-01-15T14:52:17;98127.09;;;-9.56;100.00
42859;BME280;28505;56.970;40.998;2024-01-15T14:57:38;98120.63;;;-9.47;100.00
42859;BME280;28505;56.970;40.998;2024-01-15T15:03:01;98116.59;;;-9.43;100.00
42859;BME280;28505;56.970;40.998;2024-01-15T15:08:24;98122.53;;;-9.29;100.00
42859;BME280;28505;56.970;40.998;2024-01-15T15:13:46;98120.47;;;-9.21;100.00
42859;BME280;28505;56.970;40.998;2024-01-15T15:19:08;98124.94;;;-9.03;100.00
42859;BME280;28505;56.970;40.998;2024-01-15T15:24:30;98132.97;;;-8.98;100.00
42859;BME280;28505;56.970;40.998;2024-01-15T15:29:53;98118.72;;;-9.02;100.00
42859;BME280;28505;56.970;40.998;2024-01-15T15:35:16;98119.47;;;-8.94;100.00
42859;BME280;28505;56.970;40.998;2024-01-15T15:40:39;98120.81;;;-8.85;100.00
42859;BME280;28505;56.970;40.998;2024-01-15T15:46:01;98112.81;;;-8.90;100.00
42859;BME280;28505;56.970;40.998;2024-01-15T15:51:23;98105.53;;;-8.82;100.00
42859;BME280;28505;56.970;40.998;2024-01-15T15:56:48;98109.28;;;-8.78;100.00
42859;BME280;28505;56.970;40.998;2024-01-15T16:02:13;98126.13;;;-8.74;100.00
42859;BME280;28505;56.970;40.998;2024-01-15T16:07:36;98116.09;;;-8.77;100.00
42859;BME280;28505;56.970;40.998;2024-01-15T16:12:58;98116.66;;;-8.68;100.00
42859;BME280;28505;56.970;40.998;2024-01-15T16:18:20;98094.00;;;-8.74;100.00
42859;BME280;28505;56.970;40.998;2024-01-15T16:24:02;98100.31;;;-8.63;100.00
42859;BME280;28505;56.970;40.998;2024-01-15T16:29:42;98100.06;;;-8.55;100.00
42859;BME280;28505;56.970;40.998;2024-01-15T16:35:05;98096.00;;;-8.51;100.00
42859;BME280;28505;56.970;40.998;2024-01-15T16:40:28;98075.22;;;-8.64;100.00
42859;BME280;28505;56.970;40.998;2024-01-15T16:45:52;98101.75;;;-8.42;100.00
42859;BME280;28505;56.970;40.998;2024-01-15T16:51:16;98075.44;;;-8.48;100.00
42859;BME280;28505;56.970;40.998;2024-01-15T16:56:38;98082.31;;;-8.46;100.00
42859;BME280;28505;56.970;40.998;2024-01-15T17:02:00;98071.91;;;-8.53;100.00
42859;BME280;28505;56.970;40.998;2024-01-15T17:07:22;98092.16;;;-8.30;100.00
42859;BME280;28505;56.970;40.998;2024-01-15T17:12:44;98100.19;;;-8.32;100.00
42859;BME280;28505;56.970;40.998;2024-01-15T17:18:07;98097.50;;;-8.25;100.00
42859;BME280;28505;56.970;40.998;2024-01-15T17:23:32;98057.31;;;-8.42;100.00
42859;BME280;28505;56.970;40.998;2024-01-15T17:28:54;98084.00;;;-8.22;100.00
42859;BME280;28505;56.970;40.998;2024-01-15T17:34:22;98063.53;;;-8.25;100.00
42859;BME280;28505;56.970;40.998;2024-01-15T17:39:45;98075.44;;;-8.11;100.00
42859;BME280;28505;56.970;40.998;2024-01-15T17:45:07;98081.69;;;-8.12;100.00
42859;BME280;28505;56.970;40.998;2024-01-15T17:50:30;98083.06;;;-8.09;100.00
42859;BME280;28505;56.970;40.998;2024-01-15T17:55:54;98088.06;;;-8.08;100.00
42859;BME280;28505;56.970;40.998;2024-01-15T18:01:17;98061.13;;;-8.08;100.00
42859;BME280;28505;56.970;40.998;2024-01-15T18:06:41;98065.63;;;-7.97;100.00
42859;BME280;28505;56.970;40.998;2024-01-15T18:12:03;98059.97;;;-7.94;100.00
42859;BME280;28505;56.970;40.998;2024-01-15T18:17:26;98064.97;;;-7.92;100.00
42859;BME280;28505;56.970;40.998;2024-01-15T18:22:48;98065.47;;;-7.84;100.00
42859;BME280;28505;56.970;40.998;2024-01-15T18:28:11;98064.66;;;-7.84;100.00
42859;BME280;28505;56.970;40.998;2024-01-15T18:33:36;98067.84;;;-7.82;100.00
42859;BME280;28505;56.970;40.998;2024-01-15T18:38:59;98062.59;;;-7.82;100.00
42859;BME280;28505;56.970;40.998;2024-01-15T18:44:27;98048.63;;;-7.88;100.00
42859;BME280;28505;56.970;40.998;2024-01-15T18:49:51;98041.91;;;-7.84;100.00
42859;BME280;28505;56.970;40.998;2024-01-15T18:55:13;98055.13;;;-7.79;100.00
42859;BME280;28505;56.970;40.998;2024-01-15T19:00:36;98012.97;;;-8.01;100.00
42859;BME280;28505;56.970;40.998;2024-01-15T19:05:59;98030.88;;;-7.86;100.00
42859;BME280;28505;56.970;40.998;2024-01-15T19:11:21;98012.31;;;-7.96;100.00
42859;BME280;28505;56.970;40.998;2024-01-15T19:16:44;98020.75;;;-7.82;100.00
42859;BME280;28505;56.970;40.998;2024-01-15T19:22:08;98021.13;;;-7.79;100.00
42859;BME280;28505;56.970;40.998;2024-01-15T19:27:30;98024.56;;;-7.78;100.00
42859;BME280;28505;56.970;40.998;2024-01-15T19:32:52;98031.81;;;-7.80;100.00
42859;BME280;28505;56.970;40.998;2024-01-15T19:38:15;98037.88;;;-7.68;100.00
42859;BME280;28505;56.970;40.998;2024-01-15T19:43:37;98013.72;;;-7.82;100.00
42859;BME280;28505;56.970;40.998;2024-01-15T19:48:59;98035.28;;;-7.68;100.00
42859;BME280;28505;56.970;40.998;2024-01-15T19:54:21;98027.19;;;-7.66;100.00
42859;BME280;28505;56.970;40.998;2024-01-15T19:59:45;98036.28;;;-7.69;100.00
42859;BME280;28505;56.970;40.998;2024-01-15T20:05:14;98027.09;;;-7.60;100.00
42859;BME280;28505;56.970;40.998;2024-01-15T20:10:38;98023.59;;;-7.54;100.00
42859;BME280;28505;56.970;40.998;2024-01-15T20:16:08;98017.56;;;-7.54;100.00
42859;BME280;28505;56.970;40.998;2024-01-15T20:21:32;98015.88;;;-7.48;100.00
42859;BME280;28505;56.970;40.998;2024-01-15T20:26:55;98028.72;;;-7.47;100.00
42859;BME280;28505;56.970;40.998;2024-01-15T20:32:21;98004.22;;;-7.53;100.00
42859;BME280;28505;56.970;40.998;2024-01-15T20:37:46;98013.25;;;-7.48;100.00
42859;BME280;28505;56.970;40.998;2024-01-15T20:43:09;98012.91;;;-7.40;100.00
42859;BME280;28505;56.970;40.998;2024-01-15T20:48:31;97991.50;;;-7.61;100.00
42859;BME280;28505;56.970;40.998;2024-01-15T20:53:53;97997.75;;;-7.50;100.00
42859;BME280;28505;56.970;40.998;2024-01-15T20:59:16;98019.44;;;-7.31;100.00
42859;BME280;28505;56.970;40.998;2024-01-15T21:04:38;97999.06;;;-7.29;100.00
42859;BME280;28505;56.970;40.998;2024-01-15T21:10:01;97994.72;;;-7.35;100.00
42859;BME280;28505;56.970;40.998;2024-01-15T21:15:24;97992.91;;;-7.23;100.00
42859;BME280;28505;56.970;40.998;2024-01-15T21:20:47;97998.13;;;-7.23;100.00
42859;BME280;28505;56.970;40.998;2024-01-15T21:26:10;97988.13;;;-7.26;100.00
42859;BME280;28505;56.970;40.998;2024-01-15T21:31:36;97983.59;;;-7.19;100.00
42859;BME280;28505;56.970;40.998;2024-01-15T21:36:59;97959.09;;;-7.36;100.00
42859;BME280;28505;56.970;40.998;2024-01-15T21:42:24;97977.53;;;-7.31;100.00
42859;BME280;28505;56.970;40.998;2024-01-15T21:47:47;97956.38;;;-7.41;100.00
42859;BME280;28505;56.970;40.998;2024-01-15T21:53:10;97935.75;;;-7.49;100.00
42859;BME280;28505;56.970;40.998;2024-01-15T21:58:34;97942.38;;;-7.35;100.00
42859;BME280;28505;56.970;40.998;2024-01-15T22:03:57;97934.84;;;-7.43;100.00
42859;BME280;28505;56.970;40.998;2024-01-15T22:09:19;97938.84;;;-7.29;100.00
42859;BME280;28505;56.970;40.998;2024-01-15T22:14:43;97947.50;;;-7.28;100.00
42859;BME280;28505;56.970;40.998;2024-01-15T22:20:06;97937.25;;;-7.30;100.00
42859;BME280;28505;56.970;40.998;2024-01-15T22:25:30;97930.28;;;-7.36;100.00
42859;BME280;28505;56.970;40.998;2024-01-15T22:31:00;97922.22;;;-7.35;100.00
42859;BME280;28505;56.970;40.998;2024-01-15T22:36:22;97930.66;;;-7.21;100.00
42859;BME280;28505;56.970;40.998;2024-01-15T22:41:45;97913.91;;;-7.32;100.00
42859;BME280;28505;56.970;40.998;2024-01-15T22:47:10;97912.69;;;-7.29;100.00
42859;BME280;28505;56.970;40.998;2024-01-15T22:52:41;97907.09;;;-7.21;100.00
42859;BME280;28505;56.970;40.998;2024-01-15T22:58:07;97893.19;;;-7.33;100.00
42859;BME280;28505;56.970;40.998;2024-01-15T23:03:29;97897.06;;;-7.24;100.00
42859;BME280;28505;56.970;40.998;2024-01-15T23:08:54;97919.25;;;-7.03;100.00
42859;BME280;28505;56.970;40.998;2024-01-15T23:14:17;97920.06;;;-7.02;100.00
42859;BME280;28505;56.970;40.998;2024-01-15T23:19:40;97887.25;;;-7.17;100.00
42859;BME280;28505;56.970;40.998;2024-01-15T23:25:03;97910.38;;;-7.02;100.00
42859;BME280;28505;56.970;40.998;2024-01-15T23:30:26;97892.50;;;-7.05;100.00
42859;BME280;28505;56.970;40.998;2024-01-15T23:35:49;97877.94;;;-7.13;100.00
42859;BME280;28505;56.970;40.998;2024-01-15T23:41:19;97899.88;;;-6.90;100.00
42859;BME280;28505;56.970;40.998;2024-01-15T23:46:44;97904.88;;;-6.89;100.00
42859;BME280;28505;56.970;40.998;2024-01-15T23:52:07;97893.63;;;-6.89;100.00
42859;BME280;28505;56.970;40.998;2024-01-15T23:57:30;97891.53;;;-6.87;100.00
